Time;durP1;ratioP1;P1;durP2;ratioP2;P2;SDS_P1;SDS_P2;PMS_P1;PMS_P2;Temp;Humidity;BMP_temperature;BMP_pressure;BME280_temperature;BME280_humidity;BME280_pressure;Samples;Min_cycle;Max_cycle;Signal;HPM_P1;HPM_P2
2023/11/19 00:01:47;;;;;;;4.20;3.20;;;7.90;99.90;;;;;;7366302;19;20018;-73
2023/11/19 00:04:19;;;;;;;3.55;3.20;;;7.90;99.90;;;;;;7365003;19;20127;-72
2023/11/19 00:06:52;;;;;;;3.70;3.25;;;8.00;99.90;;;;;;7365973;19;20566;-72
2023/11/19 00:09:22;;;;;;;3.38;2.65;;;8.00;99.90;;;;;;7360892;19;20019;-72
2023/11/19 00:11:52;;;;;;;3.00;2.50;;;8.00;99.90;;;;;;7374111;19;20014;-74
2023/11/19 00:14:24;;;;;;;3.15;2.70;;;8.10;99.90;;;;;;7374675;19;20032;-72
2023/11/19 00:16:54;;;;;;;5.30;3.17;;;8.10;99.90;;;;;;7376329;19;20011;-74
2023/11/19 00:19:24;;;;;;;7.78;3.30;;;8.10;99.90;;;;;;7383129;19;20015;-73
2023/11/19 00:21:56;;;;;;;3.92;2.95;;;8.10;99.90;;;;;;7382163;19;20007;-73
2023/11/19 00:24:26;;;;;;;4.95;3.42;;;8.20;99.90;;;;;;7382407;19;20014;-72
2023/11/19 00:26:56;;;;;;;5.13;3.28;;;8.20;99.90;;;;;;7383750;19;20022;-73
2023/11/19 00:29:26;;;;;;;3.33;2.22;;;8.30;99.90;;;;;;7382598;19;20010;-73
2023/11/19 00:31:56;;;;;;;4.35;2.42;;;8.30;99.90;;;;;;7382069;19;20473;-72
2023/11/19 00:34:27;;;;;;;3.05;1.98;;;8.40;99.90;;;;;;7381334;19;20018;-71
2023/11/19 00:36:59;;;;;;;3.20;1.90;;;8.50;99.90;;;;;;7383355;19;20554;-72
2023/11/19 00:39:29;;;;;;;3.30;2.05;;;8.60;99.90;;;;;;7382372;19;20014;-72
2023/11/19 00:41:59;;;;;;;1.70;1.33;;;8.70;99.90;;;;;;7381842;19;20363;-71
2023/11/19 00:44:29;;;;;;;2.28;1.80;;;8.70;99.90;;;;;;7382658;19;20014;-72
2023/11/19 00:47:00;;;;;;;2.00;1.60;;;8.80;99.90;;;;;;7383606;19;20378;-72
2023/11/19 00:49:30;;;;;;;3.13;1.60;;;8.80;99.90;;;;;;7380696;19;20101;-72
2023/11/19 00:52:03;;;;;;;2.67;1.60;;;8.90;99.90;;;;;;7383628;19;20510;-72
2023/11/19 00:54:33;;;;;;;4.18;1.40;;;8.90;99.90;;;;;;7382309;19;20039;-73
2023/11/19 00:57:03;;;;;;;2.55;1.60;;;9.00;99.90;;;;;;7382177;19;20023;-71
2023/11/19 00:59:33;;;;;;;1.67;1.20;;;9.00;99.90;;;;;;7382374;19;20034;-71
2023/11/19 01:02:06;;;;;;;1.35;1.10;;;9.00;99.90;;;;;;7381863;19;20033;-73
2023/11/19 01:04:38;;;;;;;2.45;1.20;;;9.00;99.90;;;;;;7381720;19;20010;-72
2023/11/19 01:07:12;;;;;;;1.58;1.17;;;9.00;99.90;;;;;;7382710;19;20009;-71
2023/11/19 01:09:44;;;;;;;1.75;1.40;;;9.00;99.90;;;;;;7381056;19;20359;-71
2023/11/19 01:12:15;;;;;;;1.55;1.15;;;9.00;99.90;;;;;;7381848;19;20374;-71
2023/11/19 01:14:45;;;;;;;5.00;1.30;;;9.00;99.90;;;;;;7381574;19;20014;-73
2023/11/19 01:17:16;;;;;;;1.13;1.02;;;9.00;99.90;;;;;;7382072;19;20010;-73
2023/11/19 01:19:47;;;;;;;1.45;1.10;;;9.10;99.90;;;;;;7383248;19;20007;-73
2023/11/19 01:22:19;;;;;;;1.52;1.20;;;9.10;99.90;;;;;;7380257;19;20023;-73
2023/11/19 01:24:52;;;;;;;1.55;1.20;;;9.10;99.90;;;;;;7380932;19;20010;-72
2023/11/19 01:27:22;;;;;;;1.20;0.95;;;9.10;99.90;;;;;;7381865;19;20024;-72
2023/11/19 01:29:52;;;;;;;2.97;1.23;;;9.20;99.90;;;;;;7381862;19;20002;-72
2023/11/19 01:32:23;;;;;;;1.48;1.00;;;9.20;99.90;;;;;;7381523;19;20011;-72
2023/11/19 01:34:53;;;;;;;2.10;0.90;;;9.20;99.90;;;;;;7380863;19;20040;-71
2023/11/19 01:37:26;;;;;;;1.20;0.88;;;9.30;99.90;;;;;;7381697;19;20018;-71
2023/11/19 01:39:57;;;;;;;1.10;0.70;;;9.20;99.90;;;;;;7381801;19;20041;-72
2023/11/19 01:42:28;;;;;;;1.55;0.90;;;9.20;99.90;;;;;;7382088;19;20006;-72
2023/11/19 01:45:01;;;;;;;1.23;0.70;;;9.30;99.90;;;;;;7380227;19;20039;-71
2023/11/19 01:47:33;;;;;;;0.95;0.80;;;9.30;99.90;;;;;;7380701;19;20127;-71
2023/11/19 01:50:06;;;;;;;1.02;0.70;;;9.30;99.90;;;;;;7379916;19;20392;-72
2023/11/19 01:52:41;;;;;;;1.77;0.50;;;9.30;99.90;;;;;;7381112;19;20031;-73
2023/11/19 01:55:12;;;;;;;0.70;0.60;;;9.40;99.90;;;;;;7381290;19;20439;-72
2023/11/19 01:57:43;;;;;;;1.13;0.60;;;9.40;99.90;;;;;;7381962;19;20007;-72
2023/11/19 02:00:16;;;;;;;1.98;0.60;;;9.40;99.90;;;;;;7381046;19;20045;-73
2023/11/19 02:02:48;;;;;;;0.60;0.43;;;9.40;99.90;;;;;;7373403;19;20034;-73
2023/11/19 02:05:23;;;;;;;2.47;0.47;;;9.40;99.90;;;;;;7379677;19;20006;-72
2023/11/19 02:07:58;;;;;;;2.40;0.60;;;9.40;99.90;;;;;;7378869;19;20024;-72
2023/11/19 02:10:28;;;;;;;0.60;0.40;;;9.50;99.90;;;;;;7379685;19;20033;-72
2023/11/19 02:12:59;;;;;;;1.00;0.57;;;9.50;99.90;;;;;;7379549;19;20010;-72
2023/11/19 02:15:31;;;;;;;2.72;0.70;;;9.40;99.90;;;;;;7379619;19;20047;-72
2023/11/19 02:18:20;;;;;;;0.80;0.40;;;9.50;99.90;;;;;;7378562;19;20017;-72
2023/11/19 02:20:50;;;;;;;1.00;0.70;;;9.50;99.90;;;;;;7378525;19;20054;-72
2023/11/19 02:23:23;;;;;;;0.65;0.40;;;9.50;99.90;;;;;;7379689;19;20363;-72
2023/11/19 02:26:05;;;;;;;0.82;0.50;;;9.50;99.90;;;;;;7377929;19;20486;-72
2023/11/19 02:28:39;;;;;;;2.33;0.60;;;9.50;99.90;;;;;;7379533;19;20082;-73
2023/11/19 02:31:09;;;;;;;1.60;1.00;;;9.40;99.90;;;;;;7380506;19;20009;-72
2023/11/19 02:33:40;;;;;;;2.13;1.00;;;9.50;99.90;;;;;;7379779;19;20006;-72
2023/11/19 02:36:11;;;;;;;2.90;1.70;;;9.50;99.90;;;;;;7379272;19;20879;-73
2023/11/19 02:38:41;;;;;;;2.65;1.33;;;9.50;99.90;;;;;;7380724;19;20010;-72
2023/11/19 02:41:12;;;;;;;3.95;1.40;;;9.50;99.90;;;;;;7379172;19;20015;-72
2023/11/19 02:43:44;;;;;;;1.73;1.02;;;9.40;99.90;;;;;;7378952;19;20006;-72
2023/11/19 02:46:17;;;;;;;3.13;0.77;;;9.40;99.90;;;;;;7379590;19;20014;-72
2023/11/19 02:48:47;;;;;;;1.70;0.90;;;9.40;99.90;;;;;;7378561;19;20006;-72
2023/11/19 02:51:18;;;;;;;2.42;0.90;;;9.50;99.90;;;;;;7379303;19;20010;-72
2023/11/19 02:53:48;;;;;;;4.22;1.27;;;9.50;99.90;;;;;;7377946;19;20039;-73
2023/11/19 02:56:24;;;;;;;1.80;1.20;;;9.40;99.90;;;;;;7377287;19;20002;-72
2023/11/19 02:58:57;;;;;;;1.85;0.90;;;9.50;99.90;;;;;;7378258;19;20041;-73
2023/11/19 03:01:29;;;;;;;1.77;1.02;;;9.40;99.90;;;;;;7377316;19;20015;-73
2023/11/19 03:04:02;;;;;;;2.45;0.70;;;9.50;99.90;;;;;;7377965;19;20069;-73
2023/11/19 03:06:33;;;;;;;1.08;0.73;;;9.50;99.90;;;;;;7378221;19;20546;-72
2023/11/19 03:09:10;;;;;;;1.23;0.77;;;9.50;99.90;;;;;;7378018;19;20010;-72
2023/11/19 03:11:40;;;;;;;1.02;0.77;;;9.50;99.90;;;;;;7377697;19;20530;-71
2023/11/19 03:14:13;;;;;;;1.23;0.90;;;9.50;99.90;;;;;;7377447;19;20022;-71
2023/11/19 03:16:44;;;;;;;2.13;0.90;;;9.50;99.90;;;;;;7379488;19;20007;-72
2023/11/19 03:19:14;;;;;;;2.03;1.20;;;9.50;99.90;;;;;;7375730;19;20010;-73
2023/11/19 03:21:55;;;;;;;1.90;1.27;;;9.50;99.90;;;;;;7376174;19;20013;-72
2023/11/19 03:24:25;;;;;;;1.40;1.20;;;9.40;99.90;;;;;;7376305;19;20006;-72
2023/11/19 03:26:55;;;;;;;2.03;1.30;;;9.50;99.90;;;;;;7378556;19;20006;-72
2023/11/19 03:29:28;;;;;;;4.50;2.17;;;9.50;99.90;;;;;;7377705;19;20010;-71
2023/11/19 03:31:58;;;;;;;2.05;1.33;;;9.50;99.90;;;;;;7377325;19;20063;-72
2023/11/19 03:34:28;;;;;;;1.60;1.08;;;9.40;99.90;;;;;;7377049;19;20399;-73
2023/11/19 03:36:58;;;;;;;1.80;1.23;;;9.50;99.90;;;;;;7378991;19;20014;-71
2023/11/19 03:39:29;;;;;;;2.47;1.70;;;9.40;99.90;;;;;;7377235;19;20010;-72
2023/11/19 03:41:59;;;;;;;4.53;1.98;;;9.50;99.90;;;;;;7376591;19;20014;-72
2023/11/19 03:44:32;;;;;;;2.03;1.15;;;9.50;99.90;;;;;;7374794;19;19999;-72
2023/11/19 03:47:02;;;;;;;1.95;1.10;;;9.50;99.90;;;;;;7377739;19;20025;-72
2023/11/19 03:49:32;;;;;;;1.80;1.10;;;9.50;99.90;;;;;;7373970;19;20518;-72
2023/11/19 03:52:03;;;;;;;1.60;1.35;;;9.40;99.90;;;;;;7374342;19;20379;-72
2023/11/19 03:54:33;;;;;;;2.50;2.00;;;9.50;99.90;;;;;;7375490;19;20010;-73
2023/11/19 03:57:03;;;;;;;3.95;2.22;;;9.50;99.90;;;;;;7376413;19;20006;-73
2023/11/19 03:59:36;;;;;;;3.38;2.95;;;9.50;99.90;;;;;;7372712;19;20086;-71
2023/11/19 04:02:07;;;;;;;3.10;2.80;;;9.50;99.90;;;;;;7375346;19;20010;-71
2023/11/19 04:04:37;;;;;;;5.47;2.90;;;9.40;99.90;;;;;;7374075;19;19998;-71
2023/11/19 04:07:08;;;;;;;4.97;3.25;;;9.50;99.90;;;;;;7376210;19;20014;-72
2023/11/19 04:09:38;;;;;;;3.67;3.00;;;9.40;99.90;;;;;;7375538;19;20007;-72
2023/11/19 04:12:09;;;;;;;5.75;4.22;;;9.50;99.90;;;;;;7375961;19;20032;-71
2023/11/19 04:14:41;;;;;;;6.05;4.43;;;9.50;99.90;;;;;;7374595;19;20686;-71
2023/11/19 04:17:12;;;;;;;7.50;4.28;;;9.50;99.90;;;;;;7376019;19;20018;-71
2023/11/19 04:19:43;;;;;;;10.50;5.13;;;9.40;99.90;;;;;;7375934;19;20018;-72
2023/11/19 04:22:13;;;;;;;5.35;4.40;;;9.40;99.90;;;;;;7376986;19;20410;-71
2023/11/19 04:24:44;;;;;;;6.68;4.47;;;9.40;99.90;;;;;;7374121;19;20019;-72
2023/11/19 04:27:14;;;;;;;5.68;4.28;;;9.40;99.90;;;;;;7376067;19;20395;-71
2023/11/19 04:29:46;;;;;;;6.38;4.43;;;9.50;99.90;;;;;;7375749;19;20021;-72
2023/11/19 04:32:17;;;;;;;5.70;4.53;;;9.40;99.90;;;;;;7376402;19;20018;-72
2023/11/19 04:34:47;;;;;;;7.43;4.28;;;9.50;99.90;;;;;;7374191;19;21009;-72
2023/11/19 04:37:17;;;;;;;5.45;4.28;;;9.50;99.90;;;;;;7374508;19;20744;-73
2023/11/19 04:39:47;;;;;;;4.72;3.70;;;9.50;99.90;;;;;;7375622;19;20010;-71
2023/11/19 04:42:19;;;;;;;4.78;3.83;;;9.50;99.90;;;;;;7375440;19;20003;-71
2023/11/19 04:44:52;;;;;;;5.28;3.88;;;9.60;99.90;;;;;;7373405;19;20014;-71
2023/11/19 04:47:22;;;;;;;5.00;3.70;;;9.60;99.90;;;;;;7375714;19;20031;-72
2023/11/19 04:49:52;;;;;;;4.55;3.67;;;9.60;99.90;;;;;;7375091;19;20616;-71
2023/11/19 04:52:22;;;;;;;3.85;3.22;;;9.60;99.90;;;;;;7373748;19;20017;-72
2023/11/19 04:54:52;;;;;;;4.07;3.67;;;9.60;99.90;;;;;;7373911;19;20014;-71
2023/11/19 04:57:22;;;;;;;6.53;3.47;;;9.70;99.90;;;;;;7375484;19;20020;-71
2023/11/19 04:59:55;;;;;;;4.05;3.40;;;9.60;99.90;;;;;;7376537;19;20384;-71
2023/11/19 05:02:25;;;;;;;4.63;3.42;;;9.70;99.90;;;;;;7370830;19;20032;-72
2023/11/19 05:04:55;;;;;;;3.72;2.97;;;9.70;99.90;;;;;;7378851;19;20036;-71
2023/11/19 05:07:26;;;;;;;3.70;2.90;;;9.70;99.90;;;;;;7382821;19;20011;-71
2023/11/19 05:09:56;;;;;;;4.43;3.70;;;9.70;99.90;;;;;;7380983;19;20022;-71
2023/11/19 05:12:26;;;;;;;3.78;3.08;;;9.70;99.90;;;;;;7380513;19;20032;-73
2023/11/19 05:15:00;;;;;;;4.82;2.40;;;9.70;99.90;;;;;;7379997;19;20103;-71
2023/11/19 05:17:30;;;;;;;3.23;2.20;;;9.80;99.90;;;;;;7380462;19;20017;-71
2023/11/19 05:20:00;;;;;;;2.70;1.70;;;9.90;99.90;;;;;;7380998;19;20018;-73
2023/11/19 05:22:30;;;;;;;3.70;1.35;;;9.90;99.90;;;;;;7380588;19;20010;-72
2023/11/19 05:25:02;;;;;;;1.10;0.75;;;9.90;99.90;;;;;;7380482;19;20031;-72
2023/11/19 05:27:32;;;;;;;0.65;0.40;;;10.10;99.90;;;;;;7381097;19;20459;-72
2023/11/19 05:30:10;;;;;;;0.93;0.50;;;10.10;99.90;;;;;;7380488;19;20354;-72
2023/11/19 05:32:41;;;;;;;0.68;0.30;;;10.20;99.90;;;;;;7381759;19;20043;-71
2023/11/19 05:35:11;;;;;;;0.30;0.30;;;10.20;99.90;;;;;;7379696;19;20026;-72
2023/11/19 05:37:41;;;;;;;0.85;0.50;;;10.20;99.90;;;;;;7382710;19;20031;-73
2023/11/19 05:40:14;;;;;;;2.88;0.40;;;10.30;99.90;;;;;;7381866;19;20471;-71
2023/11/19 05:42:45;;;;;;;0.20;0.20;;;10.30;99.90;;;;;;7381052;19;20105;-72
2023/11/19 05:45:18;;;;;;;0.73;0.20;;;10.40;99.90;;;;;;7379969;19;20018;-72
2023/11/19 05:47:48;;;;;;;0.40;0.30;;;10.40;99.90;;;;;;7377307;19;20036;-72
2023/11/19 05:50:18;;;;;;;0.30;0.30;;;10.40;99.90;;;;;;7379498;19;20021;-72
2023/11/19 05:52:49;;;;;;;1.50;0.20;;;10.30;99.90;;;;;;7377812;19;20024;-72
2023/11/19 05:55:19;;;;;;;0.63;0.30;;;10.30;99.90;;;;;;7378567;19;20032;-71
2023/11/19 05:57:51;;;;;;;0.52;0.20;;;10.30;99.90;;;;;;7380418;19;21371;-73
2023/11/19 06:00:24;;;;;;;1.20;0.20;;;10.30;99.90;;;;;;7379520;19;20006;-72
2023/11/19 06:02:54;;;;;;;0.45;0.22;;;10.40;99.90;;;;;;7379403;19;20010;-72
2023/11/19 06:05:24;;;;;;;0.73;0.38;;;10.30;99.90;;;;;;7377369;19;20015;-73
2023/11/19 06:07:57;;;;;;;0.80;0.38;;;10.30;99.90;;;;;;7378765;19;20471;-72
2023/11/19 06:10:30;;;;;;;1.77;0.30;;;10.30;99.90;;;;;;7380068;19;20097;-72
2023/11/19 06:13:04;;;;;;;0.68;0.40;;;10.30;99.90;;;;;;7375439;19;20006;-73
2023/11/19 06:15:37;;;;;;;0.93;0.40;;;10.40;99.90;;;;;;7375482;19;20402;-72
2023/11/19 06:18:08;;;;;;;1.17;0.35;;;10.40;99.90;;;;;;7378484;19;20014;-72
2023/11/19 06:20:38;;;;;;;0.35;0.28;;;10.40;99.90;;;;;;7377958;19;20404;-71
2023/11/19 06:23:11;;;;;;;1.73;0.50;;;10.40;99.90;;;;;;7377887;19;20017;-72
2023/11/19 06:25:41;;;;;;;1.10;0.50;;;10.40;99.90;;;;;;7378573;19;20011;-72
2023/11/19 06:28:11;;;;;;;1.25;0.43;;;10.40;99.90;;;;;;7377668;19;20014;-72
2023/11/19 06:30:43;;;;;;;0.57;0.40;;;10.50;99.90;;;;;;7377687;19;20017;-72
2023/11/19 06:33:17;;;;;;;1.70;0.50;;;10.50;99.90;;;;;;7377862;19;20014;-71
2023/11/19 06:35:49;;;;;;;0.38;0.22;;;10.60;99.90;;;;;;7376710;19;20009;-71
2023/11/19 06:38:19;;;;;;;0.30;0.25;;;10.60;99.90;;;;;;7378407;19;20470;-72
2023/11/19 06:40:49;;;;;;;1.20;0.40;;;10.70;99.90;;;;;;7377026;19;20011;-72
2023/11/19 06:43:23;;;;;;;1.30;0.30;;;10.70;99.90;;;;;;7380669;19;20014;-72
2023/11/19 06:45:56;;;;;;;1.08;0.40;;;10.70;99.90;;;;;;7377990;19;20025;-71
2023/11/19 06:48:27;;;;;;;1.50;0.55;;;10.70;99.90;;;;;;7376312;19;20021;-72
2023/11/19 06:50:57;;;;;;;1.25;0.50;;;10.70;99.90;;;;;;7377439;19;20010;-71
2023/11/19 06:53:27;;;;;;;1.65;0.57;;;10.70;99.90;;;;;;7380361;19;20491;-72
2023/11/19 06:55:57;;;;;;;0.55;0.40;;;10.70;99.90;;;;;;7379537;19;20702;-72
2023/11/19 06:58:27;;;;;;;0.50;0.38;;;10.70;99.90;;;;;;7380699;19;20066;-73
2023/11/19 07:01:00;;;;;;;1.35;0.52;;;10.70;99.90;;;;;;7380098;19;20391;-72
2023/11/19 07:03:30;;;;;;;1.05;0.40;;;10.80;99.90;;;;;;7381101;19;20467;-72
2023/11/19 07:06:00;;;;;;;1.58;0.50;;;10.80;99.90;;;;;;7378458;19;20007;-72
2023/11/19 07:08:30;;;;;;;0.88;0.20;;;10.80;99.90;;;;;;7378529;19;20035;-72
2023/11/19 07:11:00;;;;;;;2.92;0.52;;;10.90;99.90;;;;;;7380245;19;20081;-72
2023/11/19 07:13:31;;;;;;;2.97;0.43;;;10.90;99.90;;;;;;7379981;19;20018;-73
2023/11/19 07:16:03;;;;;;;0.93;0.40;;;10.90;99.90;;;;;;7376598;19;20040;-73
2023/11/19 07:18:35;;;;;;;0.50;0.45;;;11.00;99.90;;;;;;7376554;19;20053;-72
2023/11/19 07:21:07;;;;;;;1.38;0.45;;;11.00;99.90;;;;;;7378499;19;20006;-71
2023/11/19 07:23:37;;;;;;;0.63;0.40;;;11.00;99.90;;;;;;7378869;19;20013;-72
2023/11/19 07:26:10;;;;;;;0.68;0.40;;;11.00;99.90;;;;;;7377243;19;20337;-73
2023/11/19 07:28:41;;;;;;;1.65;0.60;;;11.10;99.90;;;;;;7378308;19;20017;-72
2023/11/19 07:31:15;;;;;;;0.40;0.30;;;11.10;99.90;;;;;;7378785;19;20006;-72
2023/11/19 07:33:45;;;;;;;0.63;0.40;;;11.00;99.90;;;;;;7378804;19;20010;-72
2023/11/19 07:36:15;;;;;;;1.70;0.50;;;11.00;99.90;;;;;;7378347;19;20018;-75
2023/11/19 07:38:46;;;;;;;0.57;0.38;;;11.00;99.90;;;;;;7380262;19;20688;-73
2023/11/19 07:41:16;;;;;;;1.65;0.70;;;11.00;99.90;;;;;;7378200;19;20337;-73
2023/11/19 07:43:46;;;;;;;3.13;0.70;;;11.00;99.90;;;;;;7377926;19;20361;-72
2023/11/19 07:46:19;;;;;;;1.00;0.70;;;11.00;99.90;;;;;;7376869;19;20010;-72
2023/11/19 07:48:50;;;;;;;1.88;0.70;;;11.00;99.90;;;;;;7377516;19;20014;-73
2023/11/19 07:51:20;;;;;;;2.40;0.90;;;11.00;99.90;;;;;;7378383;19;20356;-72
2023/11/19 07:53:50;;;;;;;1.00;0.70;;;11.00;99.90;;;;;;7376501;19;20022;-72
2023/11/19 07:56:20;;;;;;;1.98;0.60;;;11.00;99.90;;;;;;7377660;19;20691;-73
2023/11/19 07:58:50;;;;;;;0.60;0.45;;;11.00;99.90;;;;;;7378430;19;20086;-71
2023/11/19 08:01:23;;;;;;;0.80;0.70;;;11.00;99.90;;;;;;7373895;19;20006;-73
2023/11/19 08:03:53;;;;;;;1.63;0.80;;;11.10;99.90;;;;;;7378212;19;20010;-73
2023/11/19 08:06:26;;;;;;;1.92;0.60;;;11.10;99.90;;;;;;7376975;19;20094;-73
2023/11/19 08:08:59;;;;;;;1.13;0.57;;;11.10;99.90;;;;;;7377216;19;20014;-73
2023/11/19 08:11:31;;;;;;;0.82;0.63;;;11.20;99.90;;;;;;7378128;19;20018;-71
2023/11/19 08:14:01;;;;;;;2.15;0.63;;;11.30;99.90;;;;;;7378771;19;20018;-72
2023/11/19 08:16:33;;;;;;;2.40;0.77;;;11.30;99.90;;;;;;7377645;19;20049;-71
2023/11/19 08:19:03;;;;;;;1.15;0.80;;;11.30;99.90;;;;;;7375213;19;20018;-70
2023/11/19 08:21:34;;;;;;;1.88;0.70;;;11.40;99.90;;;;;;7377047;19;20017;-72
2023/11/19 08:24:03;;;;;;;1.50;0.70;;;11.40;99.90;;;;;;7376031;19;20561;-73
2023/11/19 08:26:34;;;;;;;1.02;0.43;;;11.50;99.90;;;;;;7377901;19;20486;-74
2023/11/19 08:29:04;;;;;;;0.95;0.45;;;11.70;99.90;;;;;;7377366;19;20002;-73
2023/11/19 08:31:36;;;;;;;1.48;0.47;;;11.70;99.90;;;;;;7377198;19;20049;-73
2023/11/19 08:34:08;;;;;;;1.48;0.65;;;11.80;99.90;;;;;;7375853;19;20015;-72
2023/11/19 08:36:39;;;;;;;1.80;0.55;;;11.90;99.90;;;;;;7375605;19;20028;-75
2023/11/19 08:39:09;;;;;;;1.40;0.82;;;11.90;99.90;;;;;;7374462;19;20035;-74
2023/11/19 08:41:40;;;;;;;0.73;0.50;;;11.90;99.90;;;;;;7383298;19;20014;-72
2023/11/19 08:44:10;;;;;;;1.80;0.52;;;11.90;99.90;;;;;;7381814;19;20033;-73
2023/11/19 08:46:49;;;;;;;0.65;0.60;;;11.90;99.90;;;;;;7383521;19;20425;-73
2023/11/19 08:49:19;;;;;;;2.58;0.50;;;11.90;99.90;;;;;;7380433;19;20373;-72
2023/11/19 08:51:49;;;;;;;1.98;0.50;;;11.90;99.90;;;;;;7380727;19;20013;-72
2023/11/19 08:54:20;;;;;;;0.90;0.40;;;12.00;99.90;;;;;;7379063;19;20057;-71
2023/11/19 08:56:50;;;;;;;0.80;0.55;;;12.10;99.90;;;;;;7380161;19;20007;-71
2023/11/19 08:59:21;;;;;;;1.17;0.60;;;12.20;99.90;;;;;;7380524;19;20010;-70
2023/11/19 09:01:54;;;;;;;2.10;0.55;;;12.20;99.90;;;;;;7380125;19;20018;-70
2023/11/19 09:04:25;;;;;;;1.38;0.60;;;12.20;99.90;;;;;;7379182;19;20006;-70
2023/11/19 09:06:55;;;;;;;2.15;0.95;;;12.30;99.90;;;;;;7379781;19;20459;-70
2023/11/19 09:09:25;;;;;;;1.42;0.70;;;12.50;99.90;;;;;;7380951;19;20014;-70
2023/11/19 09:11:55;;;;;;;1.73;0.93;;;12.50;99.90;;;;;;7379740;19;20480;-70
2023/11/19 09:14:25;;;;;;;1.88;0.60;;;12.70;99.90;;;;;;7379707;19;20034;-70
2023/11/19 09:16:58;;;;;;;2.35;1.65;;;12.80;99.90;;;;;;7376738;19;20014;-71
2023/11/19 09:19:28;;;;;;;1.15;0.90;;;12.80;99.90;;;;;;7380083;19;20694;-70
2023/11/19 09:21:58;;;;;;;1.30;0.80;;;12.80;99.90;;;;;;7379952;19;20039;-69
2023/11/19 09:24:28;;;;;;;1.35;0.70;;;12.80;99.90;;;;;;7379273;19;20030;-71
2023/11/19 09:27:00;;;;;;;1.55;0.77;;;12.80;99.90;;;;;;7380026;19;20763;-70
2023/11/19 09:29:30;;;;;;;1.42;0.85;;;12.80;99.90;;;;;;7379356;19;20010;-68
2023/11/19 09:32:03;;;;;;;1.35;0.70;;;12.80;99.90;;;;;;7378792;19;20028;-71
2023/11/19 09:34:34;;;;;;;1.75;0.70;;;12.80;99.90;;;;;;7378752;19;20015;-69
2023/11/19 09:37:04;;;;;;;4.68;0.98;;;12.80;99.90;;;;;;7381406;19;20029;-69
2023/11/19 09:39:50;;;;;;;2.50;0.63;;;13.00;57.50;;;;;;7379906;19;20085;-69
2023/11/19 09:42:21;;;;;;;2.30;0.80;;;13.10;35.20;;;;;;7380730;19;20490;-69
2023/11/19 09:44:51;;;;;;;2.28;1.17;;;13.20;19.90;;;;;;7379808;19;20021;-69
2023/11/19 09:47:24;;;;;;;2.15;0.98;;;13.40;4.20;;;;;;7381789;19;20074;-70
2023/11/19 09:49:54;;;;;;;2.50;0.73;;;13.40;1.00;;;;;;7379386;19;20021;-70
2023/11/19 09:52:28;;;;;;;1.73;0.70;;;13.40;2.20;;;;;;7378977;19;20014;-70
2023/11/19 09:54:58;;;;;;;2.70;1.05;;;13.50;6.00;;;;;;7377945;19;20023;-69
2023/11/19 09:57:29;;;;;;;4.15;0.60;;;13.60;5.70;;;;;;7377050;19;20015;-70
2023/11/19 09:59:59;;;;;;;2.92;0.70;;;13.70;5.60;;;;;;7378366;19;20026;-70
2023/11/19 10:02:36;;;;;;;1.40;0.60;;;13.70;1.00;;;;;;7378235;19;20382;-70
2023/11/19 10:05:10;;;;;;;2.75;1.00;;;13.90;1.00;;;;;;7378539;19;20020;-70
2023/11/19 10:07:40;;;;;;;1.02;0.77;;;13.90;1.00;;;;;;7379114;19;20007;-70
2023/11/19 10:10:18;;;;;;;1.50;0.50;;;14.00;1.00;;;;;;7381731;19;20018;-71
2023/11/19 10:12:49;;;;;;;1.65;0.70;;;14.10;1.00;;;;;;7378912;19;20551;-70
2023/11/19 10:15:25;;;;;;;2.42;0.60;;;14.10;1.00;;;;;;7377101;19;20065;-70
2023/11/19 10:17:59;;;;;;;4.73;0.70;;;14.10;1.00;;;;;;7378855;19;20078;-71
2023/11/19 10:20:29;;;;;;;2.08;0.35;;;14.10;1.00;;;;;;7379777;19;20058;-70
2023/11/19 10:22:59;;;;;;;0.52;0.50;;;14.20;1.00;;;;;;7378773;19;20014;-70
2023/11/19 10:25:30;;;;;;;2.35;0.60;;;14.10;1.00;;;;;;7377510;19;20021;-71
2023/11/19 10:28:00;;;;;;;1.20;0.50;;;14.30;1.00;;;;;;7379593;19;20015;-72
2023/11/19 10:30:34;;;;;;;2.67;0.50;;;14.30;1.00;;;;;;7379659;19;20511;-70
2023/11/19 10:33:14;;;;;;;0.80;0.55;;;14.40;1.00;;;;;;7378552;19;20054;-70
2023/11/19 10:35:54;;;;;;;1.48;0.65;;;14.40;1.00;;;;;;7377350;19;20378;-70
2023/11/19 10:38:28;;;;;;;2.45;0.90;;;14.40;1.00;;;;;;6866864;19;2004795;-70
2023/11/19 10:40:58;;;;;;;2.35;1.00;;;14.50;1.00;;;;;;7375654;19;20369;-71
2023/11/19 10:43:29;;;;;;;1.13;0.52;;;14.70;1.00;;;;;;7379260;19;20516;-70
2023/11/19 10:46:12;;;;;;;1.35;0.60;;;14.70;1.00;;;;;;7377344;19;20010;-70
2023/11/19 10:48:45;;;;;;;1.83;0.52;;;14.90;1.00;;;;;;7379688;19;20502;-70
2023/11/19 10:51:21;;;;;;;2.60;0.80;;;14.90;1.00;;;;;;7378811;19;20010;-70
2023/11/19 10:53:53;;;;;;;1.00;0.70;;;15.00;1.00;;;;;;7377120;19;20074;-70
2023/11/19 10:56:29;;;;;;;1.10;0.82;;;15.00;1.00;;;;;;7377539;19;20002;-68
2023/11/19 10:59:02;;;;;;;1.88;0.63;;;15.10;1.00;;;;;;7379785;19;20039;-69
2023/11/19 11:01:42;;;;;;;3.35;0.90;;;14.90;1.00;;;;;;7377579;19;20010;-69
2023/11/19 11:04:17;;;;;;;2.83;0.60;;;14.90;1.00;;;;;;7379264;19;20011;-69
2023/11/19 11:06:50;;;;;;;2.03;0.60;;;14.90;1.00;;;;;;7377982;19;20007;-71
2023/11/19 11:09:20;;;;;;;3.25;0.77;;;14.80;1.00;;;;;;7379714;19;20101;-71
2023/11/19 11:11:52;;;;;;;2.22;0.80;;;14.70;1.00;;;;;;7378409;19;20010;-70
2023/11/19 11:14:24;;;;;;;2.30;0.70;;;14.60;1.00;;;;;;7378204;19;20097;-70
2023/11/19 11:16:56;;;;;;;2.83;0.73;;;14.70;1.00;;;;;;7379090;19;20014;-68
2023/11/19 11:19:29;;;;;;;1.35;0.50;;;14.70;1.00;;;;;;7378041;19;20042;-70
2023/11/19 11:22:03;;;;;;;2.20;0.80;;;14.70;1.00;;;;;;7379093;19;20017;-70
2023/11/19 11:24:51;;;;;;;2.60;0.73;;;14.60;1.00;;;;;;7376965;19;20772;-69
2023/11/19 11:27:40;;;;;;;6.57;1.10;;;14.60;1.00;;;;;;7376995;19;20006;-71
2023/11/19 11:30:22;;;;;;;1.73;1.13;;;14.60;1.00;;;;;;7380061;19;20011;-69
2023/11/19 11:33:02;;;;;;;2.45;0.90;;;14.70;1.00;;;;;;7377353;19;20015;-69
2023/11/19 11:35:44;;;;;;;2.05;0.80;;;14.70;1.00;;;;;;7376717;19;20355;-71
2023/11/19 11:38:17;;;;;;;4.72;0.88;;;15.00;1.00;;;;;;7375483;19;20007;-70
2023/11/19 11:41:18;;;;;;;2.08;0.95;;;14.90;1.00;;;;;;7373293;19;20014;-69
2023/11/19 11:43:50;;;;;;;4.38;0.80;;;15.00;1.00;;;;;;7373203;19;20347;-70
2023/11/19 11:46:51;;;;;;;2.38;0.98;;;14.80;1.00;;;;;;7375377;19;20006;-70
2023/11/19 11:49:29;;;;;;;1.30;0.82;;;14.80;1.00;;;;;;7374156;19;20388;-71
2023/11/19 11:52:14;;;;;;;5.57;1.58;;;14.80;1.00;;;;;;7376398;19;20455;-70
2023/11/19 11:54:44;;;;;;;3.20;1.05;;;14.80;1.00;;;;;;7374659;19;20041;-70
2023/11/19 11:57:17;;;;;;;2.67;0.70;;;14.80;1.00;;;;;;7375228;19;20010;-70
2023/11/19 11:59:51;;;;;;;2.50;0.70;;;14.80;1.00;;;;;;7378439;19;20003;-69
2023/11/19 12:02:24;;;;;;;1.75;0.82;;;14.80;1.00;;;;;;7374336;19;20010;-70
2023/11/19 12:04:56;;;;;;;3.75;1.70;;;14.80;1.00;;;;;;7374985;19;20018;-71
2023/11/19 12:07:29;;;;;;;3.25;1.00;;;14.90;1.00;;;;;;7374598;19;20406;-71
2023/11/19 12:10:11;;;;;;;2.55;0.93;;;14.90;1.00;;;;;;7376006;19;20014;-70
2023/11/19 12:12:43;;;;;;;2.35;1.00;;;15.00;1.00;;;;;;7375369;19;20011;-71
2023/11/19 12:15:14;;;;;;;2.80;1.13;;;15.00;1.00;;;;;;7373109;19;20010;-70
2023/11/19 12:17:49;;;;;;;4.30;1.00;;;14.90;1.00;;;;;;7375685;19;20018;-69
2023/11/19 12:20:21;;;;;;;2.72;1.13;;;14.90;1.00;;;;;;7376450;19;20016;-70
2023/11/19 12:22:57;;;;;;;;;;;15.00;1.00;;;;;;7374710;19;20060;-70
2023/11/19 12:25:27;;;;;;;2.05;1.00;;;15.00;1.00;;;;;;7374001;19;19918;-71
2023/11/19 12:27:58;;;;;;;3.90;1.00;;;15.10;1.00;;;;;;7375777;19;20007;-71
2023/11/19 12:30:29;;;;;;;3.20;2.10;;;15.20;1.00;;;;;;7373464;19;20018;-71
2023/11/19 12:32:59;;;;;;;3.22;0.80;;;15.20;1.00;;;;;;7374619;19;20014;-71
2023/11/19 12:35:29;;;;;;;3.75;0.82;;;15.20;1.00;;;;;;7373676;19;20011;-71
2023/11/19 12:38:02;;;;;;;1.63;0.98;;;15.20;1.00;;;;;;7375140;19;20010;-70
2023/11/19 12:40:32;;;;;;;2.13;0.90;;;15.20;1.00;;;;;;7377129;19;20030;-70
2023/11/19 12:43:02;;;;;;;1.13;0.52;;;15.00;1.00;;;;;;7373812;19;20022;-70
2023/11/19 12:45:39;;;;;;;2.42;0.80;;;15.00;1.00;;;;;;7372789;19;20037;-70
2023/11/19 12:48:11;;;;;;;2.75;1.08;;;15.00;1.00;;;;;;7375628;19;20452;-69
2023/11/19 12:50:54;;;;;;;1.67;0.80;;;15.00;1.00;;;;;;7374356;19;20023;-69
2023/11/19 12:53:29;;;;;;;1.30;0.60;;;15.00;1.00;;;;;;7375722;19;20002;-69
2023/11/19 12:56:10;;;;;;;1.90;0.90;;;14.90;1.00;;;;;;7371451;19;20011;-70
2023/11/19 12:58:42;;;;;;;1.50;0.65;;;14.80;1.00;;;;;;7373448;19;20050;-71
2023/11/19 13:01:12;;;;;;;2.88;0.82;;;14.80;1.00;;;;;;7373911;19;20066;-70
2023/11/19 13:03:43;;;;;;;2.65;0.88;;;14.70;1.00;;;;;;7373302;19;20014;-70
2023/11/19 13:06:15;;;;;;;3.70;0.95;;;14.70;1.00;;;;;;7374816;19;20011;-70
2023/11/19 13:08:52;;;;;;;1.23;0.73;;;14.60;1.00;;;;;;7374399;19;20039;-70
2023/11/19 13:11:33;;;;;;;3.13;1.02;;;14.60;1.00;;;;;;7374721;19;20036;-70
2023/11/19 13:14:08;;;;;;;4.35;1.10;;;14.60;1.00;;;;;;7370825;19;20022;-70
2023/11/19 13:16:40;;;;;;;1.73;0.82;;;14.60;1.00;;;;;;7373103;19;20019;-70
2023/11/19 13:19:11;;;;;;;2.25;1.10;;;14.60;1.00;;;;;;7372820;19;20014;-70